Time;durP1;ratioP1;P1;durP2;ratioP2;P2;SDS_P1;SDS_P2;PMS_P1;PMS_P2;Temp;Humidity;BMP_temperature;BMP_pressure;BME280_temperature;BME280_humidity;BME280_pressure;Samples;Min_cycle;Max_cycle;Signal;HPM_P1;HPM_P2
2021/06/13 00:01:16;;;;;;;20.83;9.57;;;14.00;78.60;;;;;;4955173;29;20375;-78
2021/06/13 00:03:42;;;;;;;26.10;8.98;;;14.00;78.50;;;;;;4941444;29;20028;-78
2021/06/13 00:06:08;;;;;;;27.25;9.27;;;13.90;78.60;;;;;;4938048;29;20048;-77
2021/06/13 00:08:33;;;;;;;22.00;9.13;;;13.90;78.80;;;;;;4954646;29;20035;-77
2021/06/13 00:11:00;;;;;;;24.17;9.55;;;13.90;78.90;;;;;;4937186;29;20483;-78
2021/06/13 00:13:26;;;;;;;21.33;9.32;;;13.90;79.10;;;;;;4954452;29;20514;-77
2021/06/13 00:15:52;;;;;;;18.02;8.95;;;13.90;79.10;;;;;;4937229;29;20051;-78
2021/06/13 00:18:19;;;;;;;26.55;9.30;;;13.90;79.10;;;;;;4952660;29;20067;-77
2021/06/13 00:20:46;;;;;;;27.67;10.25;;;13.80;79.80;;;;;;4937335;29;20035;-78
2021/06/13 00:23:11;;;;;;;22.88;8.48;;;13.80;79.50;;;;;;4937132;29;20114;-78
2021/06/13 00:25:37;;;;;;;20.00;9.23;;;13.80;79.50;;;;;;4956033;28;20062;-78
2021/06/13 00:28:03;;;;;;;16.73;8.25;;;13.80;79.50;;;;;;4940995;29;20030;-78
2021/06/13 00:30:28;;;;;;;24.42;10.05;;;13.80;79.70;;;;;;4940654;29;20079;-78
2021/06/13 00:32:54;;;;;;;18.60;8.93;;;13.80;79.60;;;;;;4940835;29;20024;-76
2021/06/13 00:35:22;;;;;;;22.00;9.13;;;13.80;79.80;;;;;;4957724;29;20027;-77
2021/06/13 00:37:49;;;;;;;16.52;8.85;;;13.80;80.00;;;;;;4940619;29;20024;-78
2021/06/13 00:40:20;;;;;;;21.95;9.65;;;13.80;79.80;;;;;;4957874;29;20031;-78
2021/06/13 00:42:46;;;;;;;24.98;10.63;;;13.80;80.00;;;;;;4940892;29;20027;-78
2021/06/13 00:45:12;;;;;;;23.50;9.90;;;13.70;80.00;;;;;;4941162;29;20122;-77
2021/06/13 00:47:39;;;;;;;20.58;10.38;;;13.70;80.10;;;;;;4940585;29;20046;-76
2021/06/13 00:50:08;;;;;;;20.77;9.52;;;13.70;80.20;;;;;;4940870;29;20059;-78
2021/06/13 00:52:34;;;;;;;26.70;10.02;;;13.70;80.10;;;;;;4940614;29;20020;-78
2021/06/13 00:55:00;;;;;;;26.48;9.40;;;13.70;80.50;;;;;;4941602;29;20379;-78
2021/06/13 00:57:26;;;;;;;18.20;9.88;;;13.70;80.70;;;;;;4954032;28;20024;-78
2021/06/13 00:59:51;;;;;;;26.17;10.63;;;13.70;80.70;;;;;;4973135;29;20061;-78
2021/06/13 01:02:17;;;;;;;18.42;10.23;;;13.70;80.80;;;;;;4963358;29;20035;-78
2021/06/13 01:04:42;;;;;;;23.10;9.48;;;13.70;80.80;;;;;;4940140;29;20071;-78
2021/06/13 01:07:15;;;;;;;19.38;9.98;;;13.60;80.90;;;;;;4940108;29;20027;-78
2021/06/13 01:09:49;;;;;;;25.38;10.40;;;13.60;80.80;;;;;;4939558;29;20035;-78
2021/06/13 01:12:19;;;;;;;22.23;10.63;;;13.60;81.10;;;;;;4940097;29;20119;-79
2021/06/13 01:14:57;;;;;;;23.17;10.32;;;13.60;81.00;;;;;;4940016;29;20028;-77
2021/06/13 01:17:48;;;;;;;21.40;9.52;;;13.60;81.00;;;;;;4940065;29;20038;-78
2021/06/13 01:20:24;;;;;;;25.05;10.45;;;13.60;81.00;;;;;;4940523;29;20400;-78
2021/06/13 01:23:17;;;;;;;19.30;10.23;;;13.50;81.30;;;;;;4967749;29;20012;-78
2021/06/13 01:26:06;;;;;;;26.67;10.70;;;13.50;81.50;;;;;;4963039;29;20053;-78
2021/06/13 01:28:56;;;;;;;25.30;10.80;;;13.40;81.70;;;;;;4958681;29;20051;-77
2021/06/13 01:31:27;;;;;;;27.55;10.48;;;13.40;81.80;;;;;;4940171;29;20027;-78
2021/06/13 01:33:56;;;;;;;21.65;11.07;;;13.40;82.00;;;;;;4957257;29;20031;-78
2021/06/13 01:36:26;;;;;;;19.98;10.15;;;13.40;82.00;;;;;;4939548;29;20026;-77
2021/06/13 01:38:53;;;;;;;21.63;10.70;;;13.40;82.20;;;;;;4940036;29;20042;-77
2021/06/13 01:41:23;;;;;;;23.13;10.50;;;13.40;82.20;;;;;;4940054;29;20031;-78
2021/06/13 01:43:53;;;;;;;23.95;10.88;;;13.30;82.20;;;;;;4960417;29;20031;-79
2021/06/13 01:46:19;;;;;;;22.50;10.93;;;13.30;82.30;;;;;;4958187;29;20023;-77
2021/06/13 01:48:46;;;;;;;21.90;9.57;;;13.30;82.50;;;;;;4956585;29;20117;-79
2021/06/13 01:51:12;;;;;;;29.27;11.88;;;13.30;82.50;;;;;;4939554;29;20024;-79
2021/06/13 01:53:43;;;;;;;20.58;10.48;;;13.30;82.30;;;;;;4956165;29;20161;-78
2021/06/13 01:56:13;;;;;;;21.25;9.75;;;13.20;82.30;;;;;;4939222;29;20031;-79
2021/06/13 01:58:41;;;;;;;24.55;11.65;;;13.20;82.50;;;;;;4939667;29;20130;-78
2021/06/13 02:01:08;;;;;;;19.65;9.75;;;13.20;82.60;;;;;;4939548;29;20063;-78
2021/06/13 02:03:37;;;;;;;22.20;10.88;;;13.10;82.90;;;;;;4939602;29;20487;-77
2021/06/13 02:06:04;;;;;;;25.77;10.20;;;13.10;83.30;;;;;;4939176;29;20055;-77
2021/06/13 02:08:33;;;;;;;23.13;12.27;;;13.10;83.50;;;;;;4938853;29;20464;-78
2021/06/13 02:11:00;;;;;;;22.80;11.02;;;13.10;83.60;;;;;;4938963;29;20031;-77
2021/06/13 02:13:27;;;;;;;21.90;10.00;;;13.10;83.40;;;;;;4938831;29;20019;-78
2021/06/13 02:15:55;;;;;;;23.02;10.18;;;13.10;83.40;;;;;;4939156;29;20031;-78
2021/06/13 02:18:23;;;;;;;25.98;10.32;;;13.10;83.30;;;;;;4956204;29;20102;-78
2021/06/13 02:20:49;;;;;;;25.00;9.82;;;13.10;83.50;;;;;;4956212;29;20027;-79
2021/06/13 02:23:16;;;;;;;21.52;9.70;;;13.10;83.60;;;;;;4956091;29;20028;-79
2021/06/13 02:25:41;;;;;;;26.42;9.98;;;13.10;83.80;;;;;;4938682;29;20019;-77
2021/06/13 02:28:08;;;;;;;23.05;10.70;;;13.10;84.50;;;;;;4955861;29;20379;-79
2021/06/13 02:30:38;;;;;;;20.80;10.13;;;13.00;83.90;;;;;;4938783;29;20030;-79
2021/06/13 02:33:06;;;;;;;26.92;10.75;;;13.10;84.10;;;;;;4938992;29;20460;-79
2021/06/13 02:35:32;;;;;;;29.17;11.07;;;13.10;84.20;;;;;;4938470;29;20079;-79
2021/06/13 02:37:58;;;;;;;30.10;11.23;;;13.00;84.50;;;;;;4939082;29;20034;-80
2021/06/13 02:40:26;;;;;;;27.33;11.25;;;13.00;84.20;;;;;;4939371;29;20039;-80
2021/06/13 02:42:52;;;;;;;22.83;10.68;;;13.00;84.20;;;;;;4956868;29;20029;-77
2021/06/13 02:45:21;;;;;;;23.05;10.63;;;13.00;84.40;;;;;;4943283;29;20035;-78
2021/06/13 02:47:48;;;;;;;21.63;10.33;;;13.00;84.30;;;;;;4958421;28;20038;-79
2021/06/13 02:50:14;;;;;;;21.98;10.35;;;13.00;84.50;;;;;;4939468;29;20030;-78
2021/06/13 02:52:46;;;;;;;21.92;9.60;;;13.00;84.50;;;;;;4938350;29;20107;-78
2021/06/13 02:55:22;;;;;;;20.38;11.85;;;13.00;84.60;;;;;;4938738;29;20357;-78
2021/06/13 02:58:07;;;;;;;23.23;11.25;;;13.00;84.70;;;;;;4937871;28;20118;-78
2021/06/13 03:00:33;;;;;;;23.40;10.57;;;13.00;84.80;;;;;;4938862;29;20031;-78
2021/06/13 03:03:00;;;;;;;19.90;11.07;;;13.00;84.90;;;;;;4956174;29;20476;-78
2021/06/13 03:05:28;;;;;;;21.75;10.20;;;12.90;84.80;;;;;;4964739;29;20023;-78
2021/06/13 03:07:55;;;;;;;19.42;10.23;;;12.90;85.00;;;;;;4949916;29;20511;-78
2021/06/13 03:10:21;;;;;;;24.17;10.85;;;12.90;84.90;;;;;;4938554;29;20187;-79
2021/06/13 03:12:48;;;;;;;29.25;12.07;;;12.90;85.00;;;;;;4955353;29;20527;-79
2021/06/13 03:15:14;;;;;;;26.20;10.43;;;12.90;85.30;;;;;;4938394;29;20027;-79
2021/06/13 03:17:42;;;;;;;28.33;12.48;;;12.90;85.40;;;;;;4955884;29;20034;-78
2021/06/13 03:20:11;;;;;;;22.48;11.18;;;12.80;85.60;;;;;;4938252;29;20035;-79
2021/06/13 03:22:37;;;;;;;29.98;12.93;;;12.80;85.40;;;;;;4938982;29;20379;-80
2021/06/13 03:25:05;;;;;;;29.80;12.43;;;12.80;85.30;;;;;;4950889;29;20039;-79
2021/06/13 03:27:31;;;;;;;26.73;11.90;;;12.90;85.50;;;;;;4965482;29;20030;-80
2021/06/13 03:29:58;;;;;;;27.45;11.32;;;12.80;85.60;;;;;;4952863;29;20015;-81
2021/06/13 03:32:25;;;;;;;24.60;11.98;;;12.80;85.60;;;;;;4938913;29;20468;-81
2021/06/13 03:34:51;;;;;;;24.55;11.88;;;12.80;85.80;;;;;;4942440;29;20051;-80
2021/06/13 03:37:18;;;;;;;25.45;11.13;;;12.80;85.60;;;;;;4941709;29;20035;-81
2021/06/13 03:39:44;;;;;;;24.23;11.13;;;12.90;85.70;;;;;;4938034;29;20023;-81
2021/06/13 03:42:11;;;;;;;34.92;12.45;;;12.90;85.80;;;;;;4937754;29;20020;-83
2021/06/13 03:44:37;;;;;;;24.17;10.88;;;12.80;85.80;;;;;;4937743;29;20023;-81
2021/06/13 03:47:04;;;;;;;27.77;12.75;;;12.80;85.80;;;;;;4937914;29;20460;-81
2021/06/13 03:49:34;;;;;;;28.80;12.10;;;12.90;86.00;;;;;;4937670;29;20035;-81
2021/06/13 03:52:00;;;;;;;;;;;12.90;86.00;;;;;;4938121;29;20023;-81
2021/06/13 03:54:26;;;;;;;28.55;12.60;;;12.90;86.70;;;;;;4937905;29;19906;-82
2021/06/13 03:56:56;;;;;;;23.45;12.68;;;12.80;85.80;;;;;;4942961;29;20054;-81
2021/06/13 03:59:26;;;;;;;29.35;12.35;;;12.90;85.90;;;;;;4921309;29;20055;-81
2021/06/13 04:01:53;;;;;;;22.45;11.13;;;12.90;86.10;;;;;;4918391;29;20420;-82
2021/06/13 04:04:20;;;;;;;25.98;12.00;;;12.90;86.30;;;;;;4918922;29;20028;-81
2021/06/13 04:06:47;;;;;;;28.95;12.15;;;12.90;86.40;;;;;;4919672;29;20035;-80
2021/06/13 04:09:16;;;;;;;21.95;11.98;;;12.90;86.30;;;;;;4919181;29;20495;-80
2021/06/13 04:11:42;;;;;;;23.90;11.23;;;12.90;86.10;;;;;;4919662;29;20068;-79
2021/06/13 04:14:11;;;;;;;21.70;12.00;;;13.00;86.30;;;;;;4919265;29;20171;-81
2021/06/13 04:16:39;;;;;;;27.42;12.90;;;12.90;86.20;;;;;;4918989;29;20054;-79
2021/06/13 04:19:05;;;;;;;24.65;11.60;;;13.00;86.20;;;;;;4918984;29;20039;-79
2021/06/13 04:21:30;;;;;;;23.67;11.30;;;13.00;85.90;;;;;;4935885;29;20028;-79
2021/06/13 04:23:58;;;;;;;27.90;12.10;;;13.00;85.90;;;;;;4919219;29;20071;-78
2021/06/13 04:26:25;;;;;;;27.63;11.60;;;13.10;85.80;;;;;;4936043;29;20028;-80
2021/06/13 04:28:51;;;;;;;22.60;11.95;;;13.20;85.90;;;;;;4919067;29;20028;-80
2021/06/13 04:31:18;;;;;;;26.48;12.13;;;13.20;85.70;;;;;;4919213;29;20034;-80
2021/06/13 04:33:47;;;;;;;23.35;11.88;;;13.30;85.50;;;;;;4918876;29;20537;-79
2021/06/13 04:36:14;;;;;;;21.67;11.15;;;13.30;85.90;;;;;;4919133;29;20020;-79
2021/06/13 04:38:40;;;;;;;23.33;10.45;;;13.40;85.30;;;;;;4934985;29;20540;-79
2021/06/13 04:41:07;;;;;;;21.80;11.38;;;13.40;85.20;;;;;;4918307;29;20160;-79
2021/06/13 04:43:35;;;;;;;25.85;11.65;;;13.40;85.00;;;;;;4918346;29;20066;-81
2021/06/13 04:46:01;;;;;;;25.83;10.93;;;13.50;84.70;;;;;;4918460;29;20020;-81
2021/06/13 04:48:26;;;;;;;22.23;11.27;;;13.50;84.70;;;;;;4918241;29;20031;-81
2021/06/13 04:50:53;;;;;;;25.15;10.85;;;13.50;85.30;;;;;;4917968;29;20028;-82
2021/06/13 04:53:32;;;;;;;21.25;11.65;;;13.50;84.60;;;;;;4918211;29;20107;-81
2021/06/13 04:56:04;;;;;;;23.00;10.55;;;13.60;84.50;;;;;;4918849;29;20028;-81
2021/06/13 04:58:30;;;;;;;20.90;9.43;;;13.60;84.60;;;;;;4896944;29;20083;-81
2021/06/13 05:00:55;;;;;;;21.48;10.85;;;13.60;84.50;;;;;;4956031;29;20110;-81
2021/06/13 05:03:21;;;;;;;20.90;10.77;;;13.70;84.30;;;;;;4937186;29;20396;-81
2021/06/13 05:05:46;;;;;;;18.77;8.65;;;13.80;84.10;;;;;;4937119;29;20027;-81
2021/06/13 05:08:12;;;;;;;23.73;10.90;;;13.80;83.80;;;;;;4955073;29;20465;-82
2021/06/13 05:10:38;;;;;;;23.33;9.63;;;13.90;83.70;;;;;;4939829;29;20452;-82
2021/06/13 05:13:14;;;;;;;23.73;9.35;;;13.90;83.70;;;;;;4977349;29;20034;-80
2021/06/13 05:15:40;;;;;;;19.77;9.20;;;14.00;84.10;;;;;;4947074;29;20046;-81
2021/06/13 05:18:06;;;;;;;21.15;9.50;;;14.20;82.90;;;;;;4941101;29;20384;-80
2021/06/13 05:20:31;;;;;;;19.42;8.95;;;14.30;82.30;;;;;;4940633;29;20502;-81
2021/06/13 05:23:02;;;;;;;22.27;9.05;;;14.40;81.80;;;;;;4940868;29;20475;-80
2021/06/13 05:25:32;;;;;;;19.33;8.05;;;14.50;81.30;;;;;;4945914;29;20027;-79
2021/06/13 05:27:58;;;;;;;19.35;8.13;;;14.60;80.80;;;;;;4948187;29;20023;-79
2021/06/13 05:30:25;;;;;;;22.83;9.30;;;14.70;80.50;;;;;;4968765;29;20070;-80
2021/06/13 05:32:51;;;;;;;21.23;8.18;;;14.90;80.30;;;;;;4946979;29;20090;-79
2021/06/13 05:35:19;;;;;;;18.48;8.40;;;15.00;79.80;;;;;;4940197;29;20456;-80
2021/06/13 05:37:45;;;;;;;21.05;7.55;;;15.10;79.10;;;;;;4939625;29;20023;-80
2021/06/13 05:40:12;;;;;;;19.17;7.97;;;15.20;78.70;;;;;;4939674;29;20106;-80
2021/06/13 05:42:38;;;;;;;24.55;8.98;;;15.30;78.30;;;;;;4939771;29;20087;-80
2021/06/13 05:45:06;;;;;;;20.20;7.72;;;15.40;78.00;;;;;;4939823;29;20032;-80
2021/06/13 05:47:32;;;;;;;20.65;7.63;;;15.50;77.10;;;;;;4939346;29;20026;-80
2021/06/13 05:49:57;;;;;;;18.85;7.90;;;15.60;76.90;;;;;;4955642;29;20036;-80
2021/06/13 05:52:26;;;;;;;15.90;7.78;;;15.70;76.10;;;;;;4957200;29;20468;-79
2021/06/13 05:54:56;;;;;;;17.75;6.97;;;15.80;76.20;;;;;;4939440;29;20019;-80
2021/06/13 05:57:25;;;;;;;15.82;5.97;;;15.90;75.40;;;;;;4939782;29;20055;-81
2021/06/13 05:59:50;;;;;;;21.60;7.82;;;16.00;74.80;;;;;;4936103;29;20502;-81
2021/06/13 06:02:16;;;;;;;17.77;6.70;;;16.10;74.10;;;;;;4920566;29;20023;-82
2021/06/13 06:04:41;;;;;;;15.00;5.85;;;16.20;73.80;;;;;;4936245;29;20063;-81
2021/06/13 06:07:07;;;;;;;20.90;7.03;;;16.30;73.60;;;;;;4937351;29;20032;-80
2021/06/13 06:09:33;;;;;;;12.75;6.03;;;16.40;72.80;;;;;;4920316;29;20291;-81
2021/06/13 06:11:58;;;;;;;17.30;6.38;;;16.50;72.30;;;;;;4920214;29;20088;-82
2021/06/13 06:14:24;;;;;;;16.85;7.18;;;16.60;71.20;;;;;;4921354;29;20424;-80
2021/06/13 06:16:49;;;;;;;15.80;6.63;;;16.70;70.50;;;;;;4920908;29;20058;-81
2021/06/13 06:19:15;;;;;;;16.77;6.57;;;16.70;70.60;;;;;;4920990;29;20130;-80
2021/06/13 06:21:41;;;;;;;19.23;6.75;;;16.80;70.20;;;;;;4921695;29;20028;-81
2021/06/13 06:24:06;;;;;;;15.02;6.25;;;16.80;70.00;;;;;;4919796;29;20059;-79
2021/06/13 06:26:32;;;;;;;17.38;6.75;;;16.90;69.70;;;;;;4922812;29;20452;-82
2021/06/13 06:28:58;;;;;;;18.58;6.00;;;16.90;69.10;;;;;;4920080;29;20035;-80
2021/06/13 06:31:23;;;;;;;14.27;5.50;;;17.10;68.10;;;;;;4920923;29;20023;-82
2021/06/13 06:33:49;;;;;;;12.85;5.47;;;17.10;68.20;;;;;;4937737;29;20024;-81
2021/06/13 06:36:15;;;;;;;13.30;4.90;;;17.20;68.70;;;;;;4920688;29;20042;-81
2021/06/13 06:38:40;;;;;;;15.20;5.22;;;17.20;67.80;;;;;;4920948;29;20032;-80
2021/06/13 06:41:06;;;;;;;11.10;5.10;;;17.40;67.70;;;;;;4920538;29;20034;-78
2021/06/13 06:43:31;;;;;;;15.13;4.82;;;17.50;66.30;;;;;;4936852;29;20549;-80
2021/06/13 06:45:57;;;;;;;12.90;5.22;;;17.60;65.10;;;;;;4920324;29;20037;-79
2021/06/13 06:48:22;;;;;;;15.27;4.85;;;17.70;65.00;;;;;;4920150;29;20024;-79
2021/06/13 06:50:48;;;;;;;15.98;5.18;;;17.90;64.30;;;;;;4919880;29;20465;-77
2021/06/13 06:53:13;;;;;;;15.35;5.07;;;18.00;63.40;;;;;;4920118;29;20028;-78
2021/06/13 06:55:39;;;;;;;16.40;5.00;;;18.10;63.20;;;;;;4937096;29;20024;-79
2021/06/13 06:58:05;;;;;;;13.40;4.50;;;18.20;61.30;;;;;;4941828;28;20043;-79
2021/06/13 07:00:31;;;;;;;11.73;4.53;;;18.30;60.30;;;;;;4939055;29;20492;-79
2021/06/13 07:02:57;;;;;;;17.63;6.18;;;18.30;61.20;;;;;;4939771;29;20118;-77
2021/06/13 07:05:23;;;;;;;11.55;4.93;;;18.40;60.90;;;;;;4939138;29;20026;-80
2021/06/13 07:07:48;;;;;;;11.00;3.55;;;18.60;60.70;;;;;;4955941;29;20035;-77
2021/06/13 07:10:14;;;;;;;6.47;2.85;;;18.90;65.50;;;;;;4938338;29;20030;-77
2021/06/13 07:12:41;;;;;;;10.40;3.70;;;19.30;63.90;;;;;;4955550;29;20027;-75
2021/06/13 07:15:08;;;;;;;13.02;3.75;;;19.60;61.40;;;;;;4955856;29;20098;-76
2021/06/13 07:17:35;;;;;;;10.07;3.78;;;19.70;60.00;;;;;;4940351;29;20461;-75
2021/06/13 07:20:01;;;;;;;6.25;2.75;;;19.80;59.00;;;;;;4957914;29;20031;-76
2021/06/13 07:22:26;;;;;;;9.07;3.95;;;19.90;58.90;;;;;;4955507;29;20034;-76
2021/06/13 07:24:56;;;;;;;8.63;3.35;;;20.00;58.60;;;;;;4938163;29;20027;-77
2021/06/13 07:27:22;;;;;;;;;;;20.00;57.80;;;;;;4964653;29;20035;-77
2021/06/13 07:29:48;;;;;;;9.32;3.58;;;20.10;57.90;;;;;;4967901;29;20027;-77
2021/06/13 07:32:16;;;;;;;7.82;3.78;;;20.10;57.40;;;;;;4950495;29;20372;-76
2021/06/13 07:34:41;;;;;;;8.60;3.60;;;20.20;58.20;;;;;;4939747;29;20027;-76
2021/06/13 07:37:07;;;;;;;10.73;3.88;;;20.40;57.80;;;;;;4955226;29;20376;-76
2021/06/13 07:39:33;;;;;;;12.32;3.50;;;20.40;57.00;;;;;;4937722;29;20031;-76
2021/06/13 07:41:59;;;;;;;9.77;3.13;;;20.40;57.70;;;;;;4937080;29;20031;-77
2021/06/13 07:44:26;;;;;;;6.43;3.10;;;20.40;57.50;;;;;;4937520;29;20440;-76
2021/06/13 07:46:53;;;;;;;12.68;3.88;;;20.60;58.30;;;;;;4954377;29;20027;-77
2021/06/13 07:49:18;;;;;;;12.20;4.45;;;20.90;57.80;;;;;;4937510;29;20102;-76
2021/06/13 07:51:44;;;;;;;8.85;3.47;;;21.20;55.90;;;;;;4937437;29;20477;-76
2021/06/13 07:54:09;;;;;;;10.35;3.50;;;21.40;56.30;;;;;;4937059;29;20436;-77
2021/06/13 07:56:35;;;;;;;8.05;3.83;;;21.50;55.40;;;;;;4937283;29;20027;-76
2021/06/13 07:59:01;;;;;;;10.07;3.83;;;21.20;53.30;;;;;;4940333;28;20549;-76
2021/06/13 08:01:26;;;;;;;8.95;3.97;;;20.70;55.20;;;;;;4935434;29;20023;-75
2021/06/13 08:03:53;;;;;;;9.57;3.90;;;20.70;55.90;;;;;;4935082;29;20379;-76
2021/06/13 08:06:19;;;;;;;9.32;3.50;;;20.70;55.40;;;;;;4917816;29;20131;-76
2021/06/13 08:08:45;;;;;;;7.72;3.17;;;20.70;55.90;;;;;;4918285;29;20114;-76
2021/06/13 08:11:10;;;;;;;9.60;3.88;;;20.90;55.50;;;;;;4935695;29;20111;-77
2021/06/13 08:13:36;;;;;;;7.88;3.47;;;20.90;55.20;;;;;;4919394;29;20046;-75
2021/06/13 08:16:02;;;;;;;23.75;5.47;;;21.10;53.60;;;;;;4917949;29;20079;-76
2021/06/13 08:18:28;;;;;;;9.75;3.75;;;21.10;53.00;;;;;;4935629;29;20481;-76
2021/06/13 08:20:54;;;;;;;7.82;3.83;;;20.90;52.30;;;;;;4934380;29;20381;-75
2021/06/13 08:23:20;;;;;;;7.75;3.60;;;20.80;52.00;;;;;;4934619;29;20039;-75
2021/06/13 08:25:45;;;;;;;8.60;3.17;;;20.80;54.00;;;;;;4935239;29;20484;-76
2021/06/13 08:28:11;;;;;;;7.88;3.15;;;21.00;56.60;;;;;;4934866;29;20030;-76
2021/06/13 08:30:37;;;;;;;7.60;3.55;;;21.30;55.10;;;;;;4934876;29;20603;-76
2021/06/13 08:33:03;;;;;;;8.18;3.40;;;21.30;54.50;;;;;;4917673;29;20176;-76
2021/06/13 08:35:29;;;;;;;12.77;3.75;;;21.30;56.30;;;;;;4917793;29;20027;-75
2021/06/13 08:37:54;;;;;;;9.38;4.03;;;21.60;55.00;;;;;;4934770;29;20024;-76
2021/06/13 08:40:21;;;;;;;9.07;3.90;;;21.70;52.70;;;;;;4933434;29;20068;-75
2021/06/13 08:42:47;;;;;;;9.18;4.15;;;21.80;55.20;;;;;;4934573;29;20091;-76
2021/06/13 08:45:14;;;;;;;15.20;4.72;;;21.90;52.10;;;;;;4917619;29;20111;-75
2021/06/13 08:47:41;;;;;;;11.98;4.15;;;21.80;50.80;;;;;;4937128;29;20023;-76
2021/06/13 08:50:10;;;;;;;10.98;4.10;;;21.40;53.60;;;;;;4921005;29;20485;-75
2021/06/13 08:52:36;;;;;;;10.00;3.80;;;21.30;54.80;;;;;;4921584;29;20417;-76
2021/06/13 08:55:02;;;;;;;12.77;4.65;;;21.50;52.40;;;;;;4937503;29;20023;-77
2021/06/13 08:57:27;;;;;;;9.50;3.78;;;21.70;55.30;;;;;;4921187;28;20068;-76
2021/06/13 08:59:53;;;;;;;9.05;3.40;;;22.00;52.30;;;;;;4955865;29;20118;-75
2021/06/13 09:02:20;;;;;;;9.02;3.42;;;22.20;53.20;;;;;;4957258;29;20110;-75
2021/06/13 09:04:45;;;;;;;12.70;4.78;;;22.50;53.50;;;;;;4940098;29;20020;-76
2021/06/13 09:07:25;;;;;;;10.32;3.78;;;22.80;52.80;;;;;;4939701;29;20034;-76
2021/06/13 09:09:55;;;;;;;11.77;4.20;;;23.00;50.90;;;;;;4939658;29;20032;-76
2021/06/13 09:12:21;;;;;;;12.00;4.75;;;22.90;51.10;;;;;;4941208;29;20126;-76
2021/06/13 09:14:53;;;;;;;7.80;3.83;;;22.80;51.90;;;;;;4956523;29;20019;-76
2021/06/13 09:17:28;;;;;;;9.77;4.45;;;22.70;52.00;;;;;;4939969;29;20023;-76
2021/06/13 09:20:23;;;;;;;11.77;4.10;;;22.70;52.40;;;;;;4940630;29;20032;-78
2021/06/13 09:23:05;;;;;;;10.68;4.03;;;22.60;50.90;;;;;;4940963;29;20023;-77
2021/06/13 09:25:31;;;;;;;9.25;3.78;;;22.80;53.20;;;;;;4953292;29;20039;-77
2021/06/13 09:28:12;;;;;;;13.48;4.13;;;22.80;53.30;;;;;;4955548;29;20016;-77
2021/06/13 09:30:44;;;;;;;13.00;4.68;;;22.80;52.60;;;;;;4956017;29;20098;-77
2021/06/13 09:33:13;;;;;;;9.95;4.28;;;22.70;51.50;;;;;;4949792;29;20027;-79
2021/06/13 09:35:41;;;;;;;11.93;5.10;;;22.80;53.60;;;;;;4944021;29;20440;-77
2021/06/13 09:38:15;;;;;;;10.88;4.50;;;22.80;50.60;;;;;;4939329;29;20027;-76
2021/06/13 09:40:47;;;;;;;8.82;3.67;;;22.80;51.90;;;;;;4956723;29;20027;-77
2021/06/13 09:43:17;;;;;;;11.52;4.13;;;23.00;51.70;;;;;;4956498;29;20042;-76
2021/06/13 09:45:48;;;;;;;11.30;5.00;;;23.00;54.40;;;;;;4956951;29;20039;-75
2021/06/13 09:48:14;;;;;;;11.90;4.35;;;23.20;50.00;;;;;;4939238;29;20302;-77
2021/06/13 09:50:43;;;;;;;11.57;4.07;;;23.40;50.90;;;;;;4939187;29;20203;-76
2021/06/13 09:53:22;;;;;;;10.20;3.97;;;23.60;51.80;;;;;;4938917;29;20019;-76
2021/06/13 09:56:04;;;;;;;8.30;3.83;;;23.80;50.20;;;;;;4938908;29;20034;-77
2021/06/13 09:58:30;;;;;;;10.38;4.65;;;24.10;46.70;;;;;;4938433;29;20480;-77
2021/06/13 10:01:09;;;;;;;9.35;3.70;;;24.20;48.40;;;;;;4938829;29;20145;-77
2021/06/13 10:03:37;;;;;;;8.73;3.70;;;24.00;51.20;;;;;;4956863;29;20137;-76
2021/06/13 10:06:05;;;;;;;14.10;4.80;;;23.90;53.20;;;;;;4938486;29;20023;-76
2021/06/13 10:08:30;;;;;;;7.90;3.10;;;24.00;47.50;;;;;;4938632;29;20026;-76
2021/06/13 10:11:00;;;;;;;11.38;5.15;;;24.10;52.30;;;;;;4956219;29;20035;-76
2021/06/13 10:13:47;;;;;;;10.07;4.32;;;24.20;45.60;;;;;;4956179;29;20031;-76
2021/06/13 10:16:33;;;;;;;9.95;4.10;;;24.20;49.20;;;;;;4955850;29;20468;-76
2021/06/13 10:19:14;;;;;;;12.27;4.55;;;24.40;45.10;;;;;;4956025;29;20090;-77
2021/06/13 10:21:50;;;;;;;13.02;4.85;;;24.30;46.10;;;;;;4938315;29;20028;-76
2021/06/13 10:24:22;;;;;;;11.40;3.25;;;24.10;46.10;;;;;;4936625;29;20051;-76
2021/06/13 10:26:51;;;;;;;10.85;4.50;;;24.10;51.40;;;;;;4952912;29;20038;-77
2021/06/13 10:29:18;;;;;;;12.55;3.90;;;24.30;45.30;;;;;;4953354;29;20034;-76
2021/06/13 10:31:46;;;;;;;9.00;4.13;;;24.40;47.30;;;;;;4939005;29;20496;-75
2021/06/13 10:34:13;;;;;;;13.35;4.30;;;24.50;46.60;;;;;;4938261;29;20484;-77
2021/06/13 10:36:41;;;;;;;9.68;4.35;;;24.40;44.70;;;;;;4956348;29;20027;-76
2021/06/13 10:39:10;;;;;;;9.20;4.05;;;24.40;43.60;;;;;;4954706;29;20499;-78
2021/06/13 10:41:36;;;;;;;12.90;4.28;;;24.50;43.60;;;;;;4953186;29;20038;-79
2021/06/13 10:44:05;;;;;;;11.90;4.70;;;24.70;42.00;;;;;;4952880;29;20118;-76
2021/06/13 10:46:31;;;;;;;10.15;4.20;;;24.70;41.90;;;;;;4935550;29;20428;-75
2021/06/13 10:48:59;;;;;;;11.13;3.83;;;24.70;43.50;;;;;;4935255;29;20086;-75
2021/06/13 10:51:29;;;;;;;12.75;4.53;;;24.90;43.30;;;;;;4954693;29;20023;-76
2021/06/13 10:54:25;;;;;;;9.60;3.97;;;25.10;41.40;;;;;;4955330;29;20464;-77
2021/06/13 10:57:16;;;;;;;12.50;4.03;;;25.00;42.70;;;;;;4955773;29;20019;-76
2021/06/13 10:59:55;;;;;;;11.25;3.63;;;25.10;43.60;;;;;;4926635;29;20051;-76
2021/06/13 11:02:24;;;;;;;8.57;3.60;;;25.20;42.10;;;;;;4920586;29;20020;-76
2021/06/13 11:05:03;;;;;;;9.70;4.63;;;25.20;46.30;;;;;;4921921;29;20380;-76
2021/06/13 11:07:29;;;;;;;9.88;3.75;;;25.30;41.30;;;;;;4935394;29;20039;-76
2021/06/13 11:10:15;;;;;;;10.73;4.55;;;25.20;45.70;;;;;;4918144;29;20063;-76
2021/06/13 11:13:04;;;;;;;11.00;4.90;;;25.10;42.00;;;;;;4918765;29;20023;-76
2021/06/13 11:15:35;;;;;;;11.65;4.07;;;25.10;43.00;;;;;;4935825;29;20055;-75
2021/06/13 11:18:21;;;;;;;10.23;4.47;;;24.90;42.20;;;;;;4918331;29;20031;-75
2021/06/13 11:21:10;;;;;;;9.23;4.13;;;24.90;40.90;;;;;;4935600;29;20036;-75
2021/06/13 11:23:36;;;;;;;12.55;3.97;;;24.90;43.10;;;;;;4918936;29;20024;-75
2021/06/13 11:26:04;;;;;;;8.25;3.25;;;24.90;41.90;;;;;;4936044;29;20038;-76
2021/06/13 11:28:33;;;;;;;7.75;3.92;;;24.90;49.50;;;;;;4941869;29;20027;-75
2021/06/13 11:30:59;;;;;;;9.52;4.80;;;24.90;47.00;;;;;;4926464;29;20106;-75
2021/06/13 11:33:54;;;;;;;8.20;4.15;;;25.10;44.00;;;;;;4934760;29;20027;-76
2021/06/13 11:36:25;;;;;;;11.25;4.53;;;25.40;46.10;;;;;;4946722;29;20024;-75
2021/06/13 11:39:04;;;;;;;8.50;3.70;;;25.60;42.30;;;;;;4935451;29;20067;-76
2021/06/13 11:41:43;;;;;;;6.72;3.60;;;25.90;43.20;;;;;;4918175;29;20100;-74
2021/06/13 11:44:20;;;;;;;9.43;3.50;;;25.80;41.20;;;;;;4934971;29;20028;-76
2021/06/13 11:46:48;;;;;;;8.77;3.88;;;26.00;42.50;;;;;;4917906;29;20095;-75
2021/06/13 11:49:19;;;;;;;9.88;3.13;;;26.20;44.50;;;;;;4934809;29;20091;-74
2021/06/13 11:52:01;;;;;;;8.45;4.10;;;26.30;42.20;;;;;;4934916;29;20027;-75
2021/06/13 11:54:40;;;;;;;8.93;4.03;;;26.20;42.40;;;;;;4934924;29;20024;-74
2021/06/13 11:57:14;;;;;;;9.73;4.27;;;26.50;42.20;;;;;;4933525;29;20111;-76
2021/06/13 11:59:45;;;;;;;9.20;3.53;;;26.60;40.00;;;;;;4933352;29;20057;-75
2021/06/13 12:02:12;;;;;;;9.15;3.40;;;26.70;43.10;;;;;;4936730;29;20086;-76
2021/06/13 12:04:38;;;;;;;7.57;3.67;;;26.60;45.20;;;;;;4953806;29;20528;-75
2021/06/13 12:07:08;;;;;;;9.68;4.22;;;26.50;42.90;;;;;;4953939;29;20033;-76
2021/06/13 12:09:34;;;;;;;8.95;3.17;;;26.50;40.10;;;;;;4954196;29;20046;-75
2021/06/13 12:12:05;;;;;;;11.55;4.40;;;26.50;43.50;;;;;;4952704;29;20031;-75
2021/06/13 12:14:34;;;;;;;7.30;4.03;;;26.70;39.20;;;;;;4936908;29;20078;-75
2021/06/13 12:17:17;;;;;;;11.67;5.00;;;26.70;42.70;;;;;;4953941;29;20034;-76
2021/06/13 12:19:47;;;;;;;9.15;3.15;;;26.90;43.10;;;;;;4954021;28;20388;-75
2021/06/13 12:22:14;;;;;;;10.88;4.22;;;27.20;40.90;;;;;;4956843;29;20094;-76
2021/06/13 12:27:23;;;;;;;9.73;3.63;;;27.40;39.70;;;;;;4957609;29;20495;-76
2021/06/13 12:30:18;;;;;;;7.10;3.13;;;27.20;42.40;;;;;;4940292;29;20026;-76
2021/06/13 12:33:03;;;;;;;7.90;3.42;;;27.10;42.40;;;;;;4930470;29;20042;-75
2021/06/13 12:35:32;;;;;;;8.57;3.97;;;27.30;43.70;;;;;;4940651;29;20065;-76
2021/06/13 12:38:00;;;;;;;7.38;3.00;;;27.40;41.20;;;;;;4957740;29;20058;-76
2021/06/13 12:40:26;;;;;;;8.52;3.10;;;27.50;41.60;;;;;;4940870;29;20035;-74
2021/06/13 12:42:52;;;;;;;9.18;3.13;;;27.60;41.60;;;;;;4956151;29;20030;-77
2021/06/13 12:45:19;;;;;;;9.18;3.70;;;27.90;47.20;;;;;;4940083;29;20115;-76
2021/06/13 12:47:47;;;;;;;6.97;2.83;;;28.10;40.90;;;;;;4957250;29;20090;-76